createdAt,value
2023-04-19T00:00:47.601Z,940.31
2023-04-19T00:01:48.319Z,940.36
2023-04-19T00:02:49.489Z,940.3
2023-04-19T00:03:49.642Z,940.26
2023-04-19T00:04:50.140Z,940.27
2023-04-19T00:05:50.917Z,940.24
2023-04-19T00:06:51.571Z,940.25
2023-04-19T00:07:52.375Z,940.3
2023-04-19T00:08:53.080Z,940.24
2023-04-19T00:09:53.379Z,940.25
2023-04-19T00:10:54.133Z,940.23
2023-04-19T00:11:54.895Z,940.25
2023-04-19T00:12:55.715Z,940.19
2023-04-19T00:13:56.423Z,940.21
2023-04-19T00:14:57.318Z,940.22
2023-04-19T00:15:57.658Z,940.15
2023-04-19T00:16:58.269Z,940.2
2023-04-19T00:17:58.523Z,940.17
2023-04-19T00:18:59.402Z,940.17
2023-04-19T00:19:59.883Z,940.18
2023-04-19T00:21:00.589Z,940.21
2023-04-19T00:22:00.812Z,940.17
2023-04-19T00:23:01.781Z,940.19
2023-04-19T00:24:02.311Z,940.2
2023-04-19T00:25:02.582Z,940.16
2023-04-19T00:26:03.482Z,940.2
2023-04-19T00:27:03.794Z,940.17
2023-04-19T00:28:04.568Z,940.17
2023-04-19T00:29:05.215Z,940.2
2023-04-19T00:30:05.459Z,940.14
2023-04-19T00:31:06.399Z,940.16
2023-04-19T00:32:06.572Z,940.12
2023-04-19T00:33:07.316Z,940.13
2023-04-19T00:34:08.279Z,940.16
2023-04-19T00:35:08.706Z,940.13
2023-04-19T00:36:09.524Z,940.17
2023-04-19T00:37:10.338Z,940.13
2023-04-19T00:38:11.081Z,940.12
2023-04-19T00:39:11.565Z,940.11
2023-04-19T00:40:11.804Z,940.11
2023-04-19T00:41:11.932Z,940.09
2023-04-19T00:42:12.488Z,940.08
2023-04-19T00:43:13.011Z,940.12
2023-04-19T00:44:13.734Z,940.08
2023-04-19T00:45:14.583Z,940.05
2023-04-19T00:46:14.886Z,940.03
2023-04-19T00:47:15.565Z,940.08
2023-04-19T00:48:16.174Z,940.04
2023-04-19T00:49:17.065Z,940.05
2023-04-19T00:50:17.417Z,940.06
2023-04-19T00:51:18.155Z,940.05
2023-04-19T00:52:18.702Z,940.04
2023-04-19T00:53:18.881Z,940.02
2023-04-19T00:54:19.564Z,940.03
2023-04-19T00:55:20.351Z,940.03
2023-04-19T00:56:21.079Z,940
2023-04-19T00:57:21.389Z,939.98
2023-04-19T00:58:22.367Z,940.02
2023-04-19T00:59:23.074Z,940.01
2023-04-19T01:00:23.695Z,940
2023-04-19T01:01:24.498Z,940.03
2023-04-19T01:02:25.374Z,940.03
2023-04-19T01:03:25.685Z,940.03
2023-04-19T01:04:26.013Z,939.99
2023-04-19T01:05:26.269Z,940
2023-04-19T01:06:26.996Z,939.99
2023-04-19T01:07:27.318Z,940
2023-04-19T01:08:28.271Z,939.97
2023-04-19T01:09:28.555Z,939.97
2023-04-19T01:10:29.388Z,939.98
2023-04-19T01:11:29.886Z,939.99
2023-04-19T01:12:30.111Z,939.97
2023-04-19T01:13:30.888Z,939.98
2023-04-19T01:14:31.377Z,939.93
2023-04-19T01:15:31.932Z,940.02
2023-04-19T01:16:32.069Z,940
2023-04-19T01:17:32.412Z,940
2023-04-19T01:18:32.800Z,939.96
2023-04-19T01:19:33.796Z,939.97
2023-04-19T01:20:34.468Z,939.96
2023-04-19T01:21:35.173Z,939.94
2023-04-19T01:22:35.875Z,939.93
2023-04-19T01:23:36.824Z,939.91
2023-04-19T01:24:37.114Z,939.89
2023-04-19T01:25:37.832Z,939.91
2023-04-19T01:26:38.337Z,939.87
2023-04-19T01:27:38.433Z,939.84
2023-04-19T01:28:39.403Z,939.85
2023-04-19T01:29:40.269Z,939.85
2023-04-19T01:30:40.737Z,939.88
2023-04-19T01:31:41.634Z,939.87
2023-04-19T01:32:41.748Z,939.83
2023-04-19T01:33:41.830Z,939.85
2023-04-19T01:34:42.372Z,939.86
2023-04-19T01:35:43.327Z,939.84
2023-04-19T01:36:44.248Z,939.82
2023-04-19T01:37:44.861Z,939.81
2023-04-19T01:38:45.800Z,939.82
2023-04-19T01:39:45.958Z,939.8
2023-04-19T01:40:46.675Z,939.81
2023-04-19T01:41:47.209Z,939.78
2023-04-19T01:42:47.533Z,939.82
2023-04-19T01:43:48.466Z,939.81
2023-04-19T01:44:49.359Z,939.78
2023-04-19T01:45:50.065Z,939.79
2023-04-19T01:46:50.680Z,939.78
2023-04-19T01:47:50.802Z,939.77
2023-04-19T01:48:50.934Z,939.8
2023-04-19T01:49:51.667Z,939.73
2023-04-19T01:50:52.686Z,939.78
2023-04-19T01:51:53.391Z,939.73
2023-04-19T01:52:53.738Z,939.74
2023-04-19T01:53:53.901Z,939.75
2023-04-19T01:54:54.416Z,939.74
2023-04-19T01:55:55.113Z,939.7
2023-04-19T01:56:55.222Z,939.71
2023-04-19T01:57:55.506Z,939.71
2023-04-19T01:58:56.232Z,939.7
2023-04-19T01:59:56.715Z,939.69
2023-04-19T02:00:57.428Z,939.71
2023-04-19T02:01:58.292Z,939.68
2023-04-19T02:02:58.746Z,939.69
2023-04-19T02:03:59.627Z,939.73
2023-04-19T02:05:00.009Z,939.69
2023-04-19T02:06:00.701Z,939.68
2023-04-19T02:07:01.407Z,939.66
2023-04-19T02:08:02.358Z,939.66
2023-04-19T02:09:03.303Z,939.65
2023-04-19T02:10:04.016Z,939.64
2023-04-19T02:11:04.419Z,939.64
2023-04-19T02:12:05.123Z,939.62
2023-04-19T02:13:05.430Z,939.64
2023-04-19T02:14:05.956Z,939.6
2023-04-19T02:15:06.316Z,939.6
2023-04-19T02:16:07.439Z,939.59
2023-04-19T02:17:07.677Z,939.59
2023-04-19T02:18:08.111Z,939.57
2023-04-19T02:19:08.143Z,939.57
2023-04-19T02:20:08.478Z,939.54
2023-04-19T02:21:08.681Z,939.56
2023-04-19T02:22:09.644Z,939.54
2023-04-19T02:23:10.244Z,939.55
2023-04-19T02:24:11.190Z,939.55
2023-04-19T02:25:11.291Z,939.52
2023-04-19T02:26:11.597Z,939.5
2023-04-19T02:27:12.315Z,939.49
2023-04-19T02:28:12.616Z,939.51
2023-04-19T02:29:13.395Z,939.52
2023-04-19T02:30:13.766Z,939.48
2023-04-19T02:31:14.189Z,939.49
2023-04-19T02:32:15.069Z,939.5
2023-04-19T02:33:15.765Z,939.51
2023-04-19T02:34:16.342Z,939.51
2023-04-19T02:35:16.465Z,939.47
2023-04-19T02:36:16.734Z,939.52
2023-04-19T02:37:17.428Z,939.53
2023-04-19T02:38:18.518Z,939.51
2023-04-19T02:39:19.362Z,939.49
2023-04-19T02:40:19.871Z,939.49
2023-04-19T02:41:20.475Z,939.45
2023-04-19T02:42:20.787Z,939.42
2023-04-19T02:43:21.482Z,939.4
2023-04-19T02:44:21.789Z,939.42
2023-04-19T02:45:22.128Z,939.41
2023-04-19T02:46:22.750Z,939.38
2023-04-19T02:47:23.049Z,939.41
2023-04-19T02:48:24.009Z,939.38
2023-04-19T02:49:24.737Z,939.35
2023-04-19T02:50:25.446Z,939.37
2023-04-19T02:51:25.755Z,939.38
2023-04-19T02:52:26.238Z,939.33
2023-04-19T02:53:26.966Z,939.35
2023-04-19T02:54:27.954Z,939.36
2023-04-19T02:55:28.934Z,939.37
2023-04-19T02:56:29.619Z,939.35
2023-04-19T02:57:30.213Z,939.36
2023-04-19T02:58:31.209Z,939.35
2023-04-19T02:59:31.950Z,939.33
2023-04-19T03:00:32.656Z,939.31
2023-04-19T03:01:32.898Z,939.34
2023-04-19T03:02:33.182Z,939.32
2023-04-19T03:03:33.309Z,939.31
2023-04-19T03:04:34.324Z,939.33
2023-04-19T03:05:34.732Z,939.3
2023-04-19T03:06:35.628Z,939.3
2023-04-19T03:07:36.122Z,939.31
2023-04-19T03:08:36.749Z,939.28
2023-04-19T03:09:37.707Z,939.24
2023-04-19T03:10:38.407Z,939.22
2023-04-19T03:11:39.261Z,939.23
2023-04-19T03:12:39.948Z,939.24
2023-04-19T03:13:40.446Z,939.22
2023-04-19T03:14:41.201Z,939.21
2023-04-19T03:15:42.150Z,939.2
2023-04-19T03:16:42.918Z,939.2
2023-04-19T03:17:43.240Z,939.21
2023-04-19T03:18:43.954Z,939.19
2023-04-19T03:19:44.267Z,939.17
2023-04-19T03:20:44.760Z,939.17
2023-04-19T03:21:45.739Z,939.18
2023-04-19T03:22:46.246Z,939.18
2023-04-19T03:23:47.114Z,939.17
2023-04-19T03:24:47.894Z,939.12
2023-04-19T03:25:48.395Z,939.15
2023-04-19T03:26:48.676Z,939.11
2023-04-19T03:27:49.202Z,939.11
2023-04-19T03:28:49.872Z,939.07
2023-04-19T03:29:50.227Z,939.07
2023-04-19T03:30:50.774Z,939.07
2023-04-19T03:31:50.907Z,939.08
2023-04-19T03:32:51.660Z,939.05
2023-04-19T03:33:52.360Z,939.06
2023-04-19T03:34:53.051Z,939.02
2023-04-19T03:35:53.934Z,939
2023-04-19T03:36:54.437Z,939.02
2023-04-19T03:37:54.975Z,939.03
2023-04-19T03:38:55.732Z,939.01
2023-04-19T03:39:56.568Z,938.96
2023-04-19T03:40:57.447Z,938.95
2023-04-19T03:41:58.121Z,938.93
2023-04-19T03:42:58.622Z,938.93
2023-04-19T03:43:59.327Z,938.91
2023-04-19T03:45:00.355Z,938.9
2023-04-19T03:46:00.912Z,938.92
2023-04-19T03:47:01.927Z,938.88
2023-04-19T03:48:03.204Z,938.91
2023-04-19T03:49:03.096Z,938.89
2023-04-19T03:50:03.705Z,938.88
2023-04-19T03:51:04.217Z,938.87
2023-04-19T03:52:04.643Z,938.84
2023-04-19T03:53:04.934Z,938.9
2023-04-19T03:54:05.941Z,938.88
2023-04-19T03:55:06.189Z,938.86
2023-04-19T03:56:06.486Z,938.89
2023-04-19T03:57:06.747Z,938.85
2023-04-19T03:58:07.820Z,938.85
2023-04-19T03:59:08.525Z,938.84
2023-04-19T04:00:09.276Z,938.88
2023-04-19T04:01:09.608Z,938.88
2023-04-19T04:02:10.180Z,938.87
2023-04-19T04:03:10.872Z,938.89
2023-04-19T04:04:11.191Z,938.92
2023-04-19T04:05:11.535Z,938.87
2023-04-19T04:06:12.026Z,938.93
2023-04-19T04:07:12.159Z,938.91
2023-04-19T04:08:12.861Z,938.87
2023-04-19T04:09:13.616Z,938.89
2023-04-19T04:10:13.857Z,938.92
2023-04-19T04:11:14.554Z,938.9
2023-04-19T04:12:14.760Z,938.92
2023-04-19T04:13:15.244Z,938.88
2023-04-19T04:14:15.833Z,938.9
2023-04-19T04:15:15.842Z,938.94
2023-04-19T04:16:16.200Z,938.89
2023-04-19T04:17:16.520Z,938.95
2023-04-19T04:18:17.009Z,938.93
2023-04-19T04:19:17.496Z,938.95
2023-04-19T04:20:18.198Z,938.93
2023-04-19T04:21:19.024Z,938.93
2023-04-19T04:22:19.784Z,938.93
2023-04-19T04:23:20.687Z,938.91
2023-04-19T04:24:21.483Z,938.9
2023-04-19T04:25:23.368Z,938.92
2023-04-19T04:26:22.549Z,938.94
2023-04-19T04:27:22.992Z,938.92
2023-04-19T04:28:23.572Z,938.92
2023-04-19T04:29:24.146Z,938.97
2023-04-19T04:30:27.304Z,938.91
2023-04-19T04:31:26.121Z,938.93
2023-04-19T04:32:27.014Z,938.95
2023-04-19T04:33:27.420Z,938.97
2023-04-19T04:34:28.123Z,938.96
2023-04-19T04:35:28.825Z,938.96
2023-04-19T04:36:29.511Z,938.97
2023-04-19T04:37:29.988Z,938.96
2023-04-19T04:38:30.941Z,939
2023-04-19T04:39:31.490Z,939
2023-04-19T04:40:32.250Z,939.01
2023-04-19T04:41:32.722Z,939.04
2023-04-19T04:42:33.419Z,939.01
2023-04-19T04:43:33.967Z,939.03
2023-04-19T04:44:34.132Z,939.01
2023-04-19T04:45:34.903Z,939
2023-04-19T04:46:35.582Z,939.01
2023-04-19T04:47:36.119Z,939.02
2023-04-19T04:48:36.236Z,938.99
2023-04-19T04:49:36.519Z,938.99
2023-04-19T04:50:36.848Z,938.95
2023-04-19T04:51:37.119Z,938.94
2023-04-19T04:52:37.532Z,938.95
2023-04-19T04:53:37.902Z,938.96
2023-04-19T04:54:38.835Z,938.96
2023-04-19T04:55:38.990Z,938.96
2023-04-19T04:56:39.928Z,938.97
2023-04-19T04:57:40.583Z,938.96
2023-04-19T04:58:41.095Z,938.98
2023-04-19T04:59:41.790Z,938.97
2023-04-19T05:00:42.301Z,938.97
2023-04-19T05:01:43.320Z,938.98
2023-04-19T05:02:44.326Z,938.97
2023-04-19T05:03:44.608Z,938.97
2023-04-19T05:04:45.291Z,938.94
2023-04-19T05:05:46.351Z,938.95
2023-04-19T05:06:46.704Z,938.97
2023-04-19T05:07:47.402Z,938.94
2023-04-19T05:08:47.896Z,938.98
2023-04-19T05:09:48.475Z,938.98
2023-04-19T05:10:49.195Z,938.96
2023-04-19T05:11:50.124Z,938.97
2023-04-19T05:12:50.531Z,938.93
2023-04-19T05:13:51.012Z,938.96
2023-04-19T05:14:51.387Z,938.94
2023-04-19T05:15:52.110Z,938.96
2023-04-19T05:16:53.064Z,938.94
2023-04-19T05:17:54.120Z,938.94
2023-04-19T05:18:54.654Z,938.93
2023-04-19T05:19:54.750Z,938.92
2023-04-19T05:20:55.677Z,938.95
2023-04-19T05:21:56.586Z,938.94
2023-04-19T05:22:57.242Z,938.93
2023-04-19T05:23:57.772Z,938.93
2023-04-19T05:24:58.228Z,938.96
2023-04-19T05:25:58.309Z,938.93
2023-04-19T05:26:59.055Z,938.93
2023-04-19T05:27:59.824Z,938.93
2023-04-19T05:29:00.328Z,938.92
2023-04-19T05:30:01.039Z,938.91
2023-04-19T05:31:02.056Z,938.93
2023-04-19T05:32:02.863Z,938.93
2023-04-19T05:33:03.471Z,938.94
2023-04-19T05:34:04.410Z,938.89
2023-04-19T05:35:05.000Z,938.91
2023-04-19T05:36:05.576Z,938.92
2023-04-19T05:37:06.099Z,938.94
2023-04-19T05:38:06.862Z,938.94
2023-04-19T05:39:07.567Z,938.93
2023-04-19T05:40:08.488Z,938.97
2023-04-19T05:41:08.655Z,938.95
2023-04-19T05:42:09.378Z,938.92
2023-04-19T05:43:09.790Z,938.96
2023-04-19T05:44:10.515Z,938.95
2023-04-19T05:45:11.508Z,938.95
2023-04-19T05:46:12.254Z,938.93
2023-04-19T05:47:13.056Z,938.92
2023-04-19T05:48:13.989Z,938.95
2023-04-19T05:49:14.946Z,938.93
2023-04-19T05:50:15.433Z,938.96
2023-04-19T05:51:16.242Z,938.95
2023-04-19T05:52:16.763Z,938.94
2023-04-19T05:53:17.840Z,938.93
2023-04-19T05:54:18.096Z,938.92
2023-04-19T05:55:18.384Z,938.94
2023-04-19T05:56:18.570Z,938.92
2023-04-19T05:57:19.254Z,938.94
2023-04-19T05:58:20.028Z,938.96
2023-04-19T05:59:20.351Z,938.91
2023-04-19T06:00:21.389Z,938.94
2023-04-19T06:01:22.254Z,938.92
2023-04-19T06:02:23.179Z,938.92
2023-04-19T06:03:24.138Z,938.94
2023-04-19T06:04:24.511Z,938.92
2023-04-19T06:05:24.772Z,938.87
2023-04-19T06:06:25.123Z,938.93
2023-04-19T06:07:31.554Z,938.9
2023-04-19T06:08:25.638Z,938.89
2023-04-19T06:09:26.136Z,938.87
2023-04-19T06:10:29.036Z,938.9
2023-04-19T06:11:38.756Z,938.9
2023-04-19T06:12:30.152Z,938.88
2023-04-19T06:13:30.831Z,938.94
2023-04-19T06:14:31.679Z,938.91
2023-04-19T06:15:32.382Z,938.93
2023-04-19T06:16:33.486Z,938.95
2023-04-19T06:17:34.326Z,938.92
2023-04-19T06:18:34.577Z,938.93
2023-04-19T06:19:35.117Z,938.94
2023-04-19T06:20:36.018Z,938.92
2023-04-19T06:21:36.341Z,938.93
2023-04-19T06:22:37.045Z,938.96
2023-04-19T06:23:37.921Z,938.95
2023-04-19T06:24:38.636Z,938.95
2023-04-19T06:25:38.837Z,938.94
2023-04-19T06:26:39.762Z,938.93
2023-04-19T06:27:40.513Z,938.91
2023-04-19T06:28:41.413Z,938.93
2023-04-19T06:29:41.922Z,938.89
2023-04-19T06:30:42.153Z,938.89
2023-04-19T06:31:42.323Z,938.9
2023-04-19T06:32:42.693Z,938.95
2023-04-19T06:33:43.429Z,938.92
2023-04-19T06:34:43.958Z,938.95
2023-04-19T06:35:44.137Z,938.89
2023-04-19T06:36:44.455Z,938.91
2023-04-19T06:37:45.212Z,938.89
2023-04-19T06:38:45.355Z,938.91
2023-04-19T06:39:46.070Z,938.91
2023-04-19T06:40:46.468Z,938.91
2023-04-19T06:41:47.205Z,938.94
2023-04-19T06:42:47.794Z,938.95
2023-04-19T06:43:48.325Z,938.93
2023-04-19T06:44:49.270Z,938.9
2023-04-19T06:45:49.889Z,938.94
2023-04-19T06:46:50.291Z,938.93
2023-04-19T06:47:50.598Z,938.99
2023-04-19T06:48:51.610Z,938.98
2023-04-19T06:49:52.543Z,938.95
2023-04-19T06:50:53.483Z,938.96
2023-04-19T06:51:54.188Z,938.99
2023-04-19T06:52:54.976Z,938.95
2023-04-19T06:53:55.724Z,938.98
2023-04-19T06:54:55.952Z,938.96
2023-04-19T06:55:56.759Z,938.97
2023-04-19T06:56:57.874Z,938.97
2023-04-19T06:57:57.986Z,938.97
2023-04-19T06:58:58.511Z,938.97
2023-04-19T06:59:59.054Z,938.95
2023-04-19T07:00:59.811Z,938.97
2023-04-19T07:02:00.237Z,938.93
2023-04-19T07:03:00.420Z,938.9
2023-04-19T07:04:00.690Z,938.93
2023-04-19T07:05:01.334Z,938.95
2023-04-19T07:06:02.043Z,938.93
2023-04-19T07:07:02.233Z,938.93
2023-04-19T07:08:02.823Z,938.93
2023-04-19T07:09:03.167Z,938.92
2023-04-19T07:10:04.114Z,938.93
2023-04-19T07:11:05.360Z,938.91
2023-04-19T07:12:05.249Z,938.93
2023-04-19T07:13:06.259Z,938.93
2023-04-19T07:14:06.930Z,938.91
2023-04-19T07:15:07.275Z,938.92
2023-04-19T07:16:08.022Z,938.88
2023-04-19T07:17:09.069Z,938.92
2023-04-19T07:18:09.234Z,938.88
2023-04-19T07:19:09.365Z,938.87
2023-04-19T07:20:10.289Z,938.88
2023-04-19T07:21:11.130Z,938.88
2023-04-19T07:22:12.693Z,938.89
2023-04-19T07:23:12.260Z,938.82
2023-04-19T07:24:13.302Z,938.84
2023-04-19T07:25:14.343Z,938.84
2023-04-19T07:26:15.144Z,938.87
2023-04-19T07:27:15.278Z,938.85
2023-04-19T07:28:15.623Z,938.86
2023-04-19T07:29:16.098Z,938.83
2023-04-19T07:30:16.608Z,938.82
2023-04-19T07:31:17.412Z,938.82
2023-04-19T07:32:18.235Z,938.83
2023-04-19T07:33:19.421Z,938.82
2023-04-19T07:34:19.615Z,938.81
2023-04-19T07:35:20.379Z,938.82
2023-04-19T07:36:21.417Z,938.82
2023-04-19T07:37:21.407Z,938.84
2023-04-19T07:38:21.539Z,938.82
2023-04-19T07:39:22.132Z,938.79
2023-04-19T07:40:22.672Z,938.81
2023-04-19T07:41:23.653Z,938.81
2023-04-19T07:42:23.991Z,938.82
2023-04-19T07:43:24.303Z,938.84
2023-04-19T07:44:24.630Z,938.84
2023-04-19T07:45:25.653Z,938.82
2023-04-19T07:46:26.528Z,938.81
2023-04-19T07:47:26.718Z,938.81
2023-04-19T07:48:27.536Z,938.81
2023-04-19T07:49:28.487Z,938.78
2023-04-19T07:50:29.249Z,938.8
2023-04-19T07:51:29.576Z,938.78
2023-04-19T07:52:29.699Z,938.79
2023-04-19T07:53:30.401Z,938.82
2023-04-19T07:54:31.263Z,938.8
2023-04-19T07:55:31.974Z,938.82
2023-04-19T07:56:33.230Z,938.82
2023-04-19T07:57:33.414Z,938.81
2023-04-19T07:58:34.270Z,938.83
2023-04-19T07:59:35.052Z,938.81
2023-04-19T08:00:35.850Z,938.77
2023-04-19T08:01:37.072Z,938.79
2023-04-19T08:02:37.135Z,938.82
2023-04-19T08:03:37.645Z,938.79
2023-04-19T08:04:37.944Z,938.78
2023-04-19T08:05:38.521Z,938.8
2023-04-19T08:06:38.961Z,938.82
2023-04-19T08:07:39.140Z,938.8
2023-04-19T08:08:39.627Z,938.78
2023-04-19T08:09:40.401Z,938.79
2023-04-19T08:10:40.908Z,938.77
2023-04-19T08:11:41.746Z,938.75
2023-04-19T08:12:47.642Z,938.75
2023-04-19T08:13:48.696Z,938.77
2023-04-19T08:16:52.450Z,938.78
2023-04-19T08:17:48.352Z,938.76
2023-04-19T08:18:48.890Z,938.81
2023-04-19T08:19:49.854Z,938.76
2023-04-19T08:20:49.957Z,938.77
2023-04-19T08:21:50.376Z,938.79
2023-04-19T08:22:51.302Z,938.79
2023-04-19T08:23:54.234Z,938.78
2023-04-19T08:24:53.332Z,938.75
2023-04-19T08:25:54.224Z,938.76
2023-04-19T08:26:55.215Z,938.77
2023-04-19T08:27:56.155Z,938.77
2023-04-19T08:28:56.915Z,938.74
2023-04-19T08:29:57.228Z,938.71
2023-04-19T08:30:57.746Z,938.75
2023-04-19T08:31:58.633Z,938.69
2023-04-19T08:32:58.868Z,938.73
2023-04-19T08:33:58.929Z,938.68
2023-04-19T08:34:59.803Z,938.73
2023-04-19T08:36:00.523Z,938.7
2023-04-19T08:38:06.268Z,938.7
2023-04-19T08:39:12.508Z,938.69
2023-04-19T08:40:07.783Z,938.67
2023-04-19T08:41:08.500Z,938.71
2023-04-19T08:42:12.996Z,938.69
2023-04-19T08:43:09.366Z,938.71
2023-04-19T08:44:09.836Z,938.71
2023-04-19T08:45:28.074Z,938.72
2023-04-19T08:46:27.069Z,938.69
2023-04-19T08:47:34.127Z,938.69
2023-04-19T08:48:33.526Z,938.69
2023-04-19T08:49:34.273Z,938.65
2023-04-19T08:50:40.618Z,938.66
2023-04-19T08:51:34.961Z,938.67
2023-04-19T08:52:37.266Z,938.62
2023-04-19T08:53:35.554Z,938.65
2023-04-19T08:54:36.167Z,938.67
2023-04-19T08:55:36.296Z,938.65
2023-04-19T08:56:37.606Z,938.61
2023-04-19T08:57:38.066Z,938.6
2023-04-19T08:58:52.527Z,938.59
2023-04-19T08:59:39.856Z,938.62
2023-04-19T09:00:40.698Z,938.61
2023-04-19T09:01:42.310Z,938.62
2023-04-19T09:02:41.916Z,938.58
2023-04-19T09:03:55.937Z,938.59
2023-04-19T09:04:43.417Z,938.59
2023-04-19T09:05:43.763Z,938.55
2023-04-19T09:06:44.003Z,938.54
2023-04-19T09:07:44.950Z,938.56
2023-04-19T09:08:45.939Z,938.56
2023-04-19T09:10:47.177Z,938.56
2023-04-19T09:11:48.035Z,938.53
2023-04-19T09:12:48.763Z,938.56
2023-04-19T09:13:51.201Z,938.51
2023-04-19T09:15:00.980Z,938.52
2023-04-19T09:15:50.289Z,938.51
2023-04-19T09:16:51.039Z,938.5
2023-04-19T09:17:51.717Z,938.47
2023-04-19T09:18:58.118Z,938.44
2023-04-19T09:19:52.334Z,938.44
2023-04-19T09:20:53.080Z,938.42
2023-04-19T09:21:53.245Z,938.43
2023-04-19T09:22:54.162Z,938.43
2023-04-19T09:23:54.960Z,938.42
2023-04-19T09:26:25.357Z,938.41
2023-04-19T09:27:26.049Z,938.41
2023-04-19T09:28:27.143Z,938.41
2023-04-19T09:29:27.281Z,938.39
2023-04-19T09:30:32.671Z,938.36
2023-04-19T09:31:52.346Z,938.41
2023-04-19T09:32:52.402Z,938.36
2023-04-19T09:33:52.689Z,938.38
2023-04-19T09:34:53.434Z,938.39
2023-04-19T09:35:53.674Z,938.35
2023-04-19T09:37:00.886Z,938.36
2023-04-19T09:38:07.047Z,938.34
2023-04-19T09:39:07.247Z,938.36
2023-04-19T09:40:07.376Z,938.34
2023-04-19T09:41:08.173Z,938.32
2023-04-19T09:42:09.062Z,938.31
2023-04-19T09:43:26.216Z,938.27
2023-04-19T09:45:28.099Z,938.25
2023-04-19T09:46:10.793Z,938.21
2023-04-19T09:47:11.553Z,938.23
2023-04-19T09:48:11.944Z,938.19
2023-04-19T09:49:20.290Z,938.2
2023-04-19T09:50:33.932Z,938.19
2023-04-19T09:51:33.348Z,938.19
2023-04-19T09:52:34.095Z,938.15
2023-04-19T09:53:35.292Z,938.14
2023-04-19T09:54:35.312Z,938.12
2023-04-19T09:55:41.491Z,938.13
2023-04-19T09:56:35.563Z,938.13
2023-04-19T09:57:36.354Z,938.12
2023-04-19T09:58:49.910Z,938.11
2023-04-19T09:59:38.030Z,938.1
2023-04-19T10:00:47.737Z,938.07
2023-04-19T10:01:38.899Z,938.11
2023-04-19T10:02:39.396Z,938.07
2023-04-19T10:03:40.128Z,938.06
2023-04-19T10:05:40.934Z,938.02
2023-04-19T10:07:41.845Z,938.04
2023-04-19T10:08:42.193Z,937.99
2023-04-19T10:09:52.800Z,938.05
2023-04-19T10:11:17.396Z,938.04
2023-04-19T10:13:27.363Z,938.05
2023-04-19T10:14:28.418Z,937.99
2023-04-19T10:15:31.559Z,938.03
2023-04-19T10:16:29.907Z,938.01
2023-04-19T10:17:29.725Z,938.03
2023-04-19T10:18:30.757Z,938.04
2023-04-19T10:19:30.936Z,938.01
2023-04-19T10:20:31.632Z,937.99
2023-04-19T10:21:31.881Z,938
2023-04-19T10:22:32.624Z,938
2023-04-19T10:23:33.664Z,938.02
2023-04-19T10:24:34.593Z,937.97
2023-04-19T10:25:35.054Z,937.95
2023-04-19T10:26:36.009Z,937.92
2023-04-19T10:27:36.596Z,937.95
2023-04-19T10:28:36.758Z,937.94
2023-04-19T10:29:37.564Z,937.97
2023-04-19T10:30:38.382Z,937.95
2023-04-19T10:31:38.608Z,937.97
2023-04-19T10:32:39.453Z,937.98
2023-04-19T10:33:40.474Z,937.97
2023-04-19T10:34:41.260Z,937.95
2023-04-19T10:35:41.861Z,937.94
2023-04-19T10:36:42.809Z,937.9
2023-04-19T10:37:42.981Z,937.93
2023-04-19T10:38:43.769Z,937.92
2023-04-19T10:39:44.668Z,937.88
2023-04-19T10:40:45.206Z,937.88
2023-04-19T10:41:46.167Z,937.9
2023-04-19T10:42:47.157Z,937.88
2023-04-19T10:43:47.311Z,937.9
2023-04-19T10:44:48.070Z,937.89
2023-04-19T10:45:48.246Z,937.87
2023-04-19T10:46:48.522Z,937.87
2023-04-19T10:47:48.742Z,937.85
2023-04-19T10:48:49.007Z,937.82
2023-04-19T10:49:49.270Z,937.86
2023-04-19T10:50:49.956Z,937.82
2023-04-19T10:51:50.716Z,937.78
2023-04-19T10:52:50.930Z,937.78
2023-04-19T10:53:51.666Z,937.77
2023-04-19T10:54:51.982Z,937.74
2023-04-19T10:55:52.998Z,937.73
2023-04-19T10:56:53.142Z,937.73
2023-04-19T10:57:54.091Z,937.69
2023-04-19T10:58:55.058Z,937.71
2023-04-19T10:59:55.228Z,937.7
2023-04-19T11:00:56.184Z,937.66
2023-04-19T11:01:56.732Z,937.72
2023-04-19T11:02:57.448Z,937.67
2023-04-19T11:03:57.931Z,937.68
2023-04-19T11:04:58.925Z,937.65
2023-04-19T11:05:59.431Z,937.65
2023-04-19T11:06:59.677Z,937.66
2023-04-19T11:08:00.410Z,937.62
2023-04-19T11:09:00.814Z,937.64
2023-04-19T11:10:01.846Z,937.59
2023-04-19T11:11:02.806Z,937.59
2023-04-19T11:12:03.448Z,937.58
2023-04-19T11:13:04.465Z,937.56
2023-04-19T11:14:05.367Z,937.56
2023-04-19T11:15:06.349Z,937.55
2023-04-19T11:16:07.336Z,937.56
2023-04-19T11:17:08.336Z,937.55
2023-04-19T11:18:12.752Z,937.52
2023-04-19T11:19:09.346Z,937.5
2023-04-19T11:20:09.624Z,937.49
2023-04-19T11:21:10.561Z,937.48
2023-04-19T11:22:11.136Z,937.48
2023-04-19T11:23:12.019Z,937.5
2023-04-19T11:24:12.686Z,937.5
2023-04-19T11:25:13.429Z,937.45
2023-04-19T11:26:14.254Z,937.46
2023-04-19T11:27:15.151Z,937.46
2023-04-19T11:28:15.874Z,937.47
2023-04-19T11:29:16.349Z,937.46
2023-04-19T11:30:17.205Z,937.46
2023-04-19T11:31:18.078Z,937.42
2023-04-19T11:32:18.489Z,937.42
2023-04-19T11:33:18.616Z,937.44
2023-04-19T11:34:19.143Z,937.4
2023-04-19T11:35:19.036Z,937.38
2023-04-19T11:36:19.981Z,937.38
2023-04-19T11:37:20.955Z,937.35
2023-04-19T11:38:21.758Z,937.35
2023-04-19T11:39:22.497Z,937.33
2023-04-19T11:40:23.400Z,937.31
2023-04-19T11:41:24.116Z,937.35
2023-04-19T11:42:24.555Z,937.3
2023-04-19T11:43:24.686Z,937.31
2023-04-19T11:44:25.648Z,937.26
2023-04-19T11:45:29.138Z,937.3
2023-04-19T11:46:26.609Z,937.3
2023-04-19T11:47:26.884Z,937.31
2023-04-19T11:48:27.058Z,937.29
2023-04-19T11:49:27.860Z,937.28
2023-04-19T11:50:28.707Z,937.28
2023-04-19T11:51:29.774Z,937.28
2023-04-19T11:52:30.810Z,937.24
2023-04-19T11:53:31.306Z,937.27
2023-04-19T11:54:32.397Z,937.25
2023-04-19T11:55:33.179Z,937.25
2023-04-19T11:56:34.145Z,937.21
2023-04-19T11:57:34.877Z,937.22
2023-04-19T11:58:35.210Z,937.25
2023-04-19T11:59:36.202Z,937.25
2023-04-19T12:00:36.530Z,937.21
2023-04-19T12:01:37.119Z,937.19
2023-04-19T12:02:37.720Z,937.19
2023-04-19T12:03:38.148Z,937.17
2023-04-19T12:04:38.682Z,937.16
2023-04-19T12:05:39.078Z,937.17
2023-04-19T12:06:39.332Z,937.14
2023-04-19T12:07:39.590Z,937.15
2023-04-19T12:08:40.439Z,937.13
2023-04-19T12:09:41.418Z,937.12
2023-04-19T12:10:41.536Z,937.1
2023-04-19T12:11:41.869Z,937.09
2023-04-19T12:12:42.746Z,937.11
2023-04-19T12:13:43.673Z,937.08
2023-04-19T12:14:44.390Z,937.12
2023-04-19T12:15:44.622Z,937.08
2023-04-19T12:16:45.657Z,937.14
2023-04-19T12:17:56.762Z,937.05
2023-04-19T12:18:46.708Z,937.12
2023-04-19T12:19:47.667Z,937.04
2023-04-19T12:20:47.873Z,937.04
2023-04-19T12:21:48.116Z,937.05
2023-04-19T12:22:48.184Z,937.04
2023-04-19T12:23:48.739Z,937.01
2023-04-19T12:24:49.679Z,937
2023-04-19T12:25:50.408Z,937.03
2023-04-19T12:26:50.603Z,936.97
2023-04-19T12:27:51.160Z,936.97
2023-04-19T12:28:52.289Z,936.97
2023-04-19T12:29:53.234Z,936.96
2023-04-19T12:30:54.245Z,936.92
2023-04-19T12:31:54.757Z,936.95
2023-04-19T12:32:55.449Z,936.91
2023-04-19T12:33:55.797Z,936.92
2023-04-19T12:34:56.018Z,936.91
2023-04-19T12:35:56.475Z,936.88
2023-04-19T12:36:57.402Z,936.92
2023-04-19T12:37:57.696Z,936.94
2023-04-19T12:38:58.746Z,936.86
2023-04-19T12:39:58.791Z,936.8
2023-04-19T12:40:59.781Z,936.83
2023-04-19T12:42:00.802Z,936.84
2023-04-19T12:43:01.305Z,936.85
2023-04-19T12:44:01.663Z,936.84
2023-04-19T12:45:01.987Z,936.85
2023-04-19T12:46:02.957Z,936.85
2023-04-19T12:47:03.533Z,936.84
2023-04-19T12:48:04.514Z,936.84
2023-04-19T12:49:05.440Z,936.85
2023-04-19T12:50:05.630Z,936.84
2023-04-19T12:51:06.613Z,936.79